sensor_id;sensor_type;location;lat;lon;timestamp;P1;durP1;ratioP1;P2;durP2;ratioP2
15716;SDS011;7960;50.908;4.204;2022-11-13T00:00:38;24.10;;;18.93;;
15716;SDS011;7960;50.908;4.204;2022-11-13T00:03:05;24.63;;;18.50;;
15716;SDS011;7960;50.908;4.204;2022-11-13T00:05:32;27.27;;;21.83;;
15716;SDS011;7960;50.908;4.204;2022-11-13T00:07:58;23.37;;;20.83;;
15716;SDS011;7960;50.908;4.204;2022-11-13T00:10:25;22.47;;;19.27;;
15716;SDS011;7960;50.908;4.204;2022-11-13T00:12:52;25.20;;;19.93;;
15716;SDS011;7960;50.908;4.204;2022-11-13T00:15:20;26.03;;;20.23;;
15716;SDS011;7960;50.908;4.204;2022-11-13T00:17:48;26.43;;;20.23;;
15716;SDS011;7960;50.908;4.204;2022-11-13T00:20:15;26.93;;;19.60;;
15716;SDS011;7960;50.908;4.204;2022-11-13T00:22:42;24.57;;;20.77;;
15716;SDS011;7960;50.908;4.204;2022-11-13T00:25:09;25.00;;;21.37;;
15716;SDS011;7960;50.908;4.204;2022-11-13T00:27:36;27.80;;;21.90;;
15716;SDS011;7960;50.908;4.204;2022-11-13T00:30:04;26.10;;;20.87;;
15716;SDS011;7960;50.908;4.204;2022-11-13T00:32:31;26.23;;;21.50;;
15716;SDS011;7960;50.908;4.204;2022-11-13T00:34:59;28.93;;;21.20;;
15716;SDS011;7960;50.908;4.204;2022-11-13T00:37:26;30.20;;;21.50;;
15716;SDS011;7960;50.908;4.204;2022-11-13T00:39:53;26.13;;;21.60;;
15716;SDS011;7960;50.908;4.204;2022-11-13T00:42:20;27.67;;;22.63;;
15716;SDS011;7960;50.908;4.204;2022-11-13T00:44:46;26.17;;;21.97;;
15716;SDS011;7960;50.908;4.204;2022-11-13T00:47:13;28.27;;;21.30;;
15716;SDS011;7960;50.908;4.204;2022-11-13T00:49:40;28.10;;;22.73;;
15716;SDS011;7960;50.908;4.204;2022-11-13T00:52:08;25.00;;;21.00;;
15716;SDS011;7960;50.908;4.204;2022-11-13T00:54:35;29.67;;;22.23;;
15716;SDS011;7960;50.908;4.204;2022-11-13T00:57:02;27.63;;;22.37;;
15716;SDS011;7960;50.908;4.204;2022-11-13T00:59:29;28.53;;;22.10;;
15716;SDS011;7960;50.908;4.204;2022-11-13T01:01:56;25.30;;;21.33;;
15716;SDS011;7960;50.908;4.204;2022-11-13T01:04:22;27.57;;;22.53;;
15716;SDS011;7960;50.908;4.204;2022-11-13T01:06:49;30.80;;;22.20;;
15716;SDS011;7960;50.908;4.204;2022-11-13T01:09:18;29.57;;;22.37;;
15716;SDS011;7960;50.908;4.204;2022-11-13T01:11:44;26.57;;;21.43;;
15716;SDS011;7960;50.908;4.204;2022-11-13T01:14:11;26.03;;;21.17;;
15716;SDS011;7960;50.908;4.204;2022-11-13T01:16:38;28.07;;;22.27;;
15716;SDS011;7960;50.908;4.204;2022-11-13T01:19:05;25.67;;;20.47;;
15716;SDS011;7960;50.908;4.204;2022-11-13T01:21:32;27.73;;;21.30;;
15716;SDS011;7960;50.908;4.204;2022-11-13T01:23:59;27.87;;;21.37;;
15716;SDS011;7960;50.908;4.204;2022-11-13T01:26:28;26.43;;;20.97;;
15716;SDS011;7960;50.908;4.204;2022-11-13T01:28:56;26.40;;;20.53;;
15716;SDS011;7960;50.908;4.204;2022-11-13T01:31:24;26.53;;;20.43;;
15716;SDS011;7960;50.908;4.204;2022-11-13T01:33:53;25.20;;;20.63;;
15716;SDS011;7960;50.908;4.204;2022-11-13T01:36:21;28.03;;;20.73;;
15716;SDS011;7960;50.908;4.204;2022-11-13T01:38:50;25.13;;;19.57;;
15716;SDS011;7960;50.908;4.204;2022-11-13T01:41:18;25.73;;;19.63;;
15716;SDS011;7960;50.908;4.204;2022-11-13T01:43:48;26.50;;;19.47;;
15716;SDS011;7960;50.908;4.204;2022-11-13T01:46:17;23.97;;;19.17;;
15716;SDS011;7960;50.908;4.204;2022-11-13T01:48:48;24.87;;;19.60;;
15716;SDS011;7960;50.908;4.204;2022-11-13T01:51:19;23.13;;;18.70;;
15716;SDS011;7960;50.908;4.204;2022-11-13T01:53:51;23.57;;;17.97;;
15716;SDS011;7960;50.908;4.204;2022-11-13T01:56:19;23.27;;;18.33;;
15716;SDS011;7960;50.908;4.204;2022-11-13T01:58:50;25.30;;;17.50;;
15716;SDS011;7960;50.908;4.204;2022-11-13T02:01:20;21.93;;;17.90;;
15716;SDS011;7960;50.908;4.204;2022-11-13T02:03:46;23.57;;;17.83;;
15716;SDS011;7960;50.908;4.204;2022-11-13T02:06:13;20.97;;;16.80;;
15716;SDS011;7960;50.908;4.204;2022-11-13T02:08:42;21.00;;;17.47;;
15716;SDS011;7960;50.908;4.204;2022-11-13T02:11:10;23.17;;;18.87;;
15716;SDS011;7960;50.908;4.204;2022-11-13T02:13:38;22.57;;;18.30;;
15716;SDS011;7960;50.908;4.204;2022-11-13T02:16:08;22.73;;;18.80;;
15716;SDS011;7960;50.908;4.204;2022-11-13T02:18:36;25.67;;;18.93;;
15716;SDS011;7960;50.908;4.204;2022-11-13T02:21:08;23.07;;;18.30;;
15716;SDS011;7960;50.908;4.204;2022-11-13T02:26:40;25.67;;;20.43;;
15716;SDS011;7960;50.908;4.204;2022-11-13T02:29:08;28.37;;;20.10;;
15716;SDS011;7960;50.908;4.204;2022-11-13T02:31:35;29.33;;;20.33;;
15716;SDS011;7960;50.908;4.204;2022-11-13T02:34:02;26.20;;;20.07;;
15716;SDS011;7960;50.908;4.204;2022-11-13T02:36:29;23.83;;;19.67;;
15716;SDS011;7960;50.908;4.204;2022-11-13T02:38:56;24.67;;;19.17;;
15716;SDS011;7960;50.908;4.204;2022-11-13T02:41:28;26.57;;;20.27;;
15716;SDS011;7960;50.908;4.204;2022-11-13T02:43:55;23.97;;;19.17;;
15716;SDS011;7960;50.908;4.204;2022-11-13T02:46:21;29.40;;;22.17;;
15716;SDS011;7960;50.908;4.204;2022-11-13T02:48:48;26.00;;;20.87;;
15716;SDS011;7960;50.908;4.204;2022-11-13T02:51:15;30.87;;;21.43;;
15716;SDS011;7960;50.908;4.204;2022-11-13T02:53:42;25.83;;;20.93;;
15716;SDS011;7960;50.908;4.204;2022-11-13T02:56:09;28.97;;;21.90;;
15716;SDS011;7960;50.908;4.204;2022-11-13T02:58:37;26.57;;;21.80;;
15716;SDS011;7960;50.908;4.204;2022-11-13T03:01:04;25.60;;;21.50;;
15716;SDS011;7960;50.908;4.204;2022-11-13T03:03:31;26.60;;;22.33;;
15716;SDS011;7960;50.908;4.204;2022-11-13T03:05:58;27.83;;;20.87;;
15716;SDS011;7960;50.908;4.204;2022-11-13T03:08:25;24.20;;;20.13;;
15716;SDS011;7960;50.908;4.204;2022-11-13T03:10:53;27.87;;;20.57;;
15716;SDS011;7960;50.908;4.204;2022-11-13T03:13:20;25.83;;;19.50;;
15716;SDS011;7960;50.908;4.204;2022-11-13T03:15:49;24.93;;;19.00;;
15716;SDS011;7960;50.908;4.204;2022-11-13T03:18:15;22.47;;;18.00;;
15716;SDS011;7960;50.908;4.204;2022-11-13T03:20:43;22.00;;;17.87;;
15716;SDS011;7960;50.908;4.204;2022-11-13T03:23:10;20.10;;;16.53;;
15716;SDS011;7960;50.908;4.204;2022-11-13T03:25:37;19.47;;;15.87;;
15716;SDS011;7960;50.908;4.204;2022-11-13T03:28:04;21.00;;;16.47;;
15716;SDS011;7960;50.908;4.204;2022-11-13T03:30:31;18.43;;;15.20;;
15716;SDS011;7960;50.908;4.204;2022-11-13T03:32:59;17.77;;;14.60;;
15716;SDS011;7960;50.908;4.204;2022-11-13T03:35:26;22.13;;;15.03;;
15716;SDS011;7960;50.908;4.204;2022-11-13T03:37:53;17.73;;;14.30;;
15716;SDS011;7960;50.908;4.204;2022-11-13T03:40:20;15.83;;;13.07;;
15716;SDS011;7960;50.908;4.204;2022-11-13T03:42:50;19.80;;;14.77;;
15716;SDS011;7960;50.908;4.204;2022-11-13T03:45:17;18.53;;;13.93;;
15716;SDS011;7960;50.908;4.204;2022-11-13T03:47:44;17.77;;;14.67;;
15716;SDS011;7960;50.908;4.204;2022-11-13T03:50:12;16.47;;;13.40;;
15716;SDS011;7960;50.908;4.204;2022-11-13T03:52:39;18.80;;;14.40;;
15716;SDS011;7960;50.908;4.204;2022-11-13T03:55:06;18.63;;;14.73;;
15716;SDS011;7960;50.908;4.204;2022-11-13T03:57:33;16.30;;;14.07;;
15716;SDS011;7960;50.908;4.204;2022-11-13T04:00:00;17.80;;;14.37;;
15716;SDS011;7960;50.908;4.204;2022-11-13T04:02:27;17.97;;;14.43;;
15716;SDS011;7960;50.908;4.204;2022-11-13T04:04:54;19.73;;;14.80;;
15716;SDS011;7960;50.908;4.204;2022-11-13T04:07:22;17.87;;;14.50;;
15716;SDS011;7960;50.908;4.204;2022-11-13T04:09:49;18.17;;;14.97;;
15716;SDS011;7960;50.908;4.204;2022-11-13T04:12:16;17.37;;;14.53;;
15716;SDS011;7960;50.908;4.204;2022-11-13T04:14:44;19.57;;;16.17;;
15716;SDS011;7960;50.908;4.204;2022-11-13T04:17:10;18.87;;;15.40;;
15716;SDS011;7960;50.908;4.204;2022-11-13T04:19:37;21.10;;;15.67;;
15716;SDS011;7960;50.908;4.204;2022-11-13T04:22:04;18.97;;;14.33;;
15716;SDS011;7960;50.908;4.204;2022-11-13T04:24:32;16.80;;;13.83;;
15716;SDS011;7960;50.908;4.204;2022-11-13T04:26:59;19.37;;;13.57;;
15716;SDS011;7960;50.908;4.204;2022-11-13T04:29:26;18.83;;;14.53;;
15716;SDS011;7960;50.908;4.204;2022-11-13T04:31:53;20.23;;;15.37;;
15716;SDS011;7960;50.908;4.204;2022-11-13T04:34:19;20.13;;;15.83;;
15716;SDS011;7960;50.908;4.204;2022-11-13T04:36:46;19.57;;;14.80;;
15716;SDS011;7960;50.908;4.204;2022-11-13T04:39:13;17.20;;;13.03;;
15716;SDS011;7960;50.908;4.204;2022-11-13T04:41:41;16.10;;;13.97;;
15716;SDS011;7960;50.908;4.204;2022-11-13T04:44:26;18.47;;;15.07;;
15716;SDS011;7960;50.908;4.204;2022-11-13T04:46:52;17.20;;;14.13;;
15716;SDS011;7960;50.908;4.204;2022-11-13T04:49:19;19.40;;;15.07;;
15716;SDS011;7960;50.908;4.204;2022-11-13T04:51:46;21.73;;;16.13;;
15716;SDS011;7960;50.908;4.204;2022-11-13T04:54:13;21.07;;;16.70;;
15716;SDS011;7960;50.908;4.204;2022-11-13T04:56:41;17.90;;;15.77;;
15716;SDS011;7960;50.908;4.204;2022-11-13T04:59:08;20.40;;;16.30;;
15716;SDS011;7960;50.908;4.204;2022-11-13T05:01:35;21.77;;;18.10;;
15716;SDS011;7960;50.908;4.204;2022-11-13T05:04:02;25.13;;;17.43;;
15716;SDS011;7960;50.908;4.204;2022-11-13T05:06:29;21.37;;;16.50;;
15716;SDS011;7960;50.908;4.204;2022-11-13T05:08:57;19.57;;;17.20;;
15716;SDS011;7960;50.908;4.204;2022-11-13T05:11:24;22.77;;;18.33;;
15716;SDS011;7960;50.908;4.204;2022-11-13T05:13:52;22.07;;;18.40;;
15716;SDS011;7960;50.908;4.204;2022-11-13T05:16:19;22.67;;;18.20;;
15716;SDS011;7960;50.908;4.204;2022-11-13T05:18:45;21.47;;;18.10;;
15716;SDS011;7960;50.908;4.204;2022-11-13T05:21:12;21.13;;;17.97;;
15716;SDS011;7960;50.908;4.204;2022-11-13T05:23:39;21.63;;;17.17;;
15716;SDS011;7960;50.908;4.204;2022-11-13T05:26:07;19.07;;;16.20;;
15716;SDS011;7960;50.908;4.204;2022-11-13T05:28:35;22.93;;;17.13;;
15716;SDS011;7960;50.908;4.204;2022-11-13T05:31:05;20.03;;;16.37;;
15716;SDS011;7960;50.908;4.204;2022-11-13T05:33:32;23.40;;;17.40;;
15716;SDS011;7960;50.908;4.204;2022-11-13T05:36:00;20.93;;;17.20;;
15716;SDS011;7960;50.908;4.204;2022-11-13T05:38:27;21.60;;;17.73;;
15716;SDS011;7960;50.908;4.204;2022-11-13T05:40:54;21.43;;;18.10;;
15716;SDS011;7960;50.908;4.204;2022-11-13T05:43:25;23.10;;;17.73;;
15716;SDS011;7960;50.908;4.204;2022-11-13T05:45:57;23.53;;;18.40;;
15716;SDS011;7960;50.908;4.204;2022-11-13T05:48:26;20.63;;;16.83;;
15716;SDS011;7960;50.908;4.204;2022-11-13T05:50:58;20.57;;;17.13;;
15716;SDS011;7960;50.908;4.204;2022-11-13T05:53:26;22.43;;;18.00;;
15716;SDS011;7960;50.908;4.204;2022-11-13T05:55:53;23.00;;;17.47;;
15716;SDS011;7960;50.908;4.204;2022-11-13T05:58:24;22.60;;;18.03;;
15716;SDS011;7960;50.908;4.204;2022-11-13T06:00:51;22.77;;;18.10;;
15716;SDS011;7960;50.908;4.204;2022-11-13T06:03:18;20.20;;;17.50;;
15716;SDS011;7960;50.908;4.204;2022-11-13T06:05:46;23.97;;;18.33;;
15716;SDS011;7960;50.908;4.204;2022-11-13T06:08:13;23.43;;;18.70;;
15716;SDS011;7960;50.908;4.204;2022-11-13T06:10:40;24.30;;;19.20;;
15716;SDS011;7960;50.908;4.204;2022-11-13T06:13:06;23.20;;;18.93;;
15716;SDS011;7960;50.908;4.204;2022-11-13T06:15:33;24.43;;;19.30;;
15716;SDS011;7960;50.908;4.204;2022-11-13T06:18:00;22.80;;;19.13;;
15716;SDS011;7960;50.908;4.204;2022-11-13T06:20:27;26.03;;;20.07;;
15716;SDS011;7960;50.908;4.204;2022-11-13T06:22:55;22.83;;;19.27;;
15716;SDS011;7960;50.908;4.204;2022-11-13T06:25:23;24.93;;;20.33;;
15716;SDS011;7960;50.908;4.204;2022-11-13T06:27:51;23.33;;;19.33;;
15716;SDS011;7960;50.908;4.204;2022-11-13T06:30:18;24.27;;;19.97;;
15716;SDS011;7960;50.908;4.204;2022-11-13T06:32:50;26.90;;;19.93;;
15716;SDS011;7960;50.908;4.204;2022-11-13T06:35:18;28.97;;;19.83;;
15716;SDS011;7960;50.908;4.204;2022-11-13T06:37:45;24.60;;;18.23;;
15716;SDS011;7960;50.908;4.204;2022-11-13T06:40:13;23.50;;;18.97;;
15716;SDS011;7960;50.908;4.204;2022-11-13T06:42:40;23.53;;;19.40;;
15716;SDS011;7960;50.908;4.204;2022-11-13T06:45:07;23.80;;;19.40;;
15716;SDS011;7960;50.908;4.204;2022-11-13T06:47:35;23.47;;;19.13;;
15716;SDS011;7960;50.908;4.204;2022-11-13T06:50:01;23.33;;;18.63;;
15716;SDS011;7960;50.908;4.204;2022-11-13T06:52:29;25.50;;;19.60;;
15716;SDS011;7960;50.908;4.204;2022-11-13T06:54:56;26.47;;;19.23;;
15716;SDS011;7960;50.908;4.204;2022-11-13T06:57:25;29.90;;;18.07;;
15716;SDS011;7960;50.908;4.204;2022-11-13T06:59:52;23.10;;;18.17;;
15716;SDS011;7960;50.908;4.204;2022-11-13T07:02:19;32.50;;;20.47;;
15716;SDS011;7960;50.908;4.204;2022-11-13T07:04:46;22.97;;;18.57;;
15716;SDS011;7960;50.908;4.204;2022-11-13T07:07:12;25.07;;;18.93;;
15716;SDS011;7960;50.908;4.204;2022-11-13T07:09:39;24.80;;;18.23;;
15716;SDS011;7960;50.908;4.204;2022-11-13T07:12:06;22.27;;;17.90;;
15716;SDS011;7960;50.908;4.204;2022-11-13T07:14:35;20.10;;;16.10;;
15716;SDS011;7960;50.908;4.204;2022-11-13T07:17:01;24.67;;;18.00;;
15716;SDS011;7960;50.908;4.204;2022-11-13T07:19:28;21.23;;;17.73;;
15716;SDS011;7960;50.908;4.204;2022-11-13T07:21:55;25.33;;;18.40;;
15716;SDS011;7960;50.908;4.204;2022-11-13T07:24:22;24.83;;;19.37;;
15716;SDS011;7960;50.908;4.204;2022-11-13T07:26:50;24.10;;;19.73;;
15716;SDS011;7960;50.908;4.204;2022-11-13T07:29:16;23.37;;;19.83;;
15716;SDS011;7960;50.908;4.204;2022-11-13T07:31:45;25.67;;;19.27;;
15716;SDS011;7960;50.908;4.204;2022-11-13T07:34:11;22.33;;;18.03;;
15716;SDS011;7960;50.908;4.204;2022-11-13T07:36:39;24.40;;;18.73;;
15716;SDS011;7960;50.908;4.204;2022-11-13T07:39:06;21.37;;;18.33;;
15716;SDS011;7960;50.908;4.204;2022-11-13T07:41:32;23.27;;;18.83;;
15716;SDS011;7960;50.908;4.204;2022-11-13T07:44:00;21.30;;;17.90;;
15716;SDS011;7960;50.908;4.204;2022-11-13T07:46:27;20.90;;;17.07;;
15716;SDS011;7960;50.908;4.204;2022-11-13T07:48:55;21.20;;;16.47;;
15716;SDS011;7960;50.908;4.204;2022-11-13T07:51:22;28.40;;;16.50;;
15716;SDS011;7960;50.908;4.204;2022-11-13T07:53:48;22.57;;;16.80;;
15716;SDS011;7960;50.908;4.204;2022-11-13T07:56:15;19.20;;;15.33;;
15716;SDS011;7960;50.908;4.204;2022-11-13T07:58:42;18.17;;;15.03;;
15716;SDS011;7960;50.908;4.204;2022-11-13T08:01:09;19.10;;;14.90;;
15716;SDS011;7960;50.908;4.204;2022-11-13T08:03:36;19.97;;;16.07;;
15716;SDS011;7960;50.908;4.204;2022-11-13T08:06:05;22.73;;;17.00;;
15716;SDS011;7960;50.908;4.204;2022-11-13T08:08:33;20.33;;;16.07;;
15716;SDS011;7960;50.908;4.204;2022-11-13T08:11:02;22.67;;;17.57;;
15716;SDS011;7960;50.908;4.204;2022-11-13T08:13:30;20.33;;;17.13;;
15716;SDS011;7960;50.908;4.204;2022-11-13T08:15:57;23.20;;;17.43;;
15716;SDS011;7960;50.908;4.204;2022-11-13T08:18:25;22.87;;;18.00;;
15716;SDS011;7960;50.908;4.204;2022-11-13T08:20:52;21.70;;;17.50;;
15716;SDS011;7960;50.908;4.204;2022-11-13T08:23:21;20.77;;;17.67;;
15716;SDS011;7960;50.908;4.204;2022-11-13T08:25:50;19.17;;;16.87;;
15716;SDS011;7960;50.908;4.204;2022-11-13T08:28:19;18.73;;;15.90;;
15716;SDS011;7960;50.908;4.204;2022-11-13T08:30:46;27.87;;;16.77;;
15716;SDS011;7960;50.908;4.204;2022-11-13T08:33:15;14.97;;;12.40;;
15716;SDS011;7960;50.908;4.204;2022-11-13T08:35:50;13.80;;;10.73;;
15716;SDS011;7960;50.908;4.204;2022-11-13T08:38:22;12.20;;;10.60;;
15716;SDS011;7960;50.908;4.204;2022-11-13T08:40:49;12.70;;;9.70;;
15716;SDS011;7960;50.908;4.204;2022-11-13T08:43:16;13.33;;;10.57;;
15716;SDS011;7960;50.908;4.204;2022-11-13T08:45:44;15.50;;;10.57;;
15716;SDS011;7960;50.908;4.204;2022-11-13T08:48:12;16.03;;;11.40;;
15716;SDS011;7960;50.908;4.204;2022-11-13T08:50:39;13.03;;;10.87;;
15716;SDS011;7960;50.908;4.204;2022-11-13T08:53:06;10.93;;;8.60;;
15716;SDS011;7960;50.908;4.204;2022-11-13T08:55:34;10.13;;;8.47;;
15716;SDS011;7960;50.908;4.204;2022-11-13T08:58:02;10.23;;;8.83;;
15716;SDS011;7960;50.908;4.204;2022-11-13T09:00:30;12.40;;;8.33;;
15716;SDS011;7960;50.908;4.204;2022-11-13T09:02:57;11.80;;;8.47;;
15716;SDS011;7960;50.908;4.204;2022-11-13T09:05:25;10.70;;;8.60;;
15716;SDS011;7960;50.908;4.204;2022-11-13T09:07:54;10.70;;;8.60;;
15716;SDS011;7960;50.908;4.204;2022-11-13T09:10:22;10.43;;;8.20;;
15716;SDS011;7960;50.908;4.204;2022-11-13T09:12:55;11.50;;;8.77;;
15716;SDS011;7960;50.908;4.204;2022-11-13T09:15:23;10.27;;;8.73;;
15716;SDS011;7960;50.908;4.204;2022-11-13T09:17:50;14.80;;;9.87;;
15716;SDS011;7960;50.908;4.204;2022-11-13T09:20:16;11.93;;;8.83;;
15716;SDS011;7960;50.908;4.204;2022-11-13T09:22:43;11.10;;;9.50;;
15716;SDS011;7960;50.908;4.204;2022-11-13T09:25:10;9.60;;;8.60;;
15716;SDS011;7960;50.908;4.204;2022-11-13T09:27:37;10.10;;;8.70;;
15716;SDS011;7960;50.908;4.204;2022-11-13T09:30:06;12.43;;;9.20;;
15716;SDS011;7960;50.908;4.204;2022-11-13T09:32:33;9.40;;;8.00;;
15716;SDS011;7960;50.908;4.204;2022-11-13T09:35:00;12.50;;;8.77;;
15716;SDS011;7960;50.908;4.204;2022-11-13T09:37:26;13.63;;;8.40;;
15716;SDS011;7960;50.908;4.204;2022-11-13T09:39:56;10.03;;;8.80;;
15716;SDS011;7960;50.908;4.204;2022-11-13T09:42:24;9.80;;;8.53;;
15716;SDS011;7960;50.908;4.204;2022-11-13T09:44:53;10.87;;;8.40;;
15716;SDS011;7960;50.908;4.204;2022-11-13T09:47:26;11.40;;;8.73;;
15716;SDS011;7960;50.908;4.204;2022-11-13T09:49:56;11.43;;;8.60;;
15716;SDS011;7960;50.908;4.204;2022-11-13T09:52:29;11.23;;;8.37;;
15716;SDS011;7960;50.908;4.204;2022-11-13T09:54:59;9.67;;;7.80;;
15716;SDS011;7960;50.908;4.204;2022-11-13T09:57:29;9.57;;;8.23;;
15716;SDS011;7960;50.908;4.204;2022-11-13T10:00:04;10.47;;;8.60;;
15716;SDS011;7960;50.908;4.204;2022-11-13T10:02:42;10.60;;;8.30;;
15716;SDS011;7960;50.908;4.204;2022-11-13T10:05:20;10.83;;;8.77;;
15716;SDS011;7960;50.908;4.204;2022-11-13T10:07:54;11.90;;;8.00;;
15716;SDS011;7960;50.908;4.204;2022-11-13T10:10:31;10.87;;;7.73;;
15716;SDS011;7960;50.908;4.204;2022-11-13T10:13:11;9.37;;;7.47;;
15716;SDS011;7960;50.908;4.204;2022-11-13T10:15:43;8.57;;;7.47;;
15716;SDS011;7960;50.908;4.204;2022-11-13T10:18:16;9.00;;;7.90;;
15716;SDS011;7960;50.908;4.204;2022-11-13T10:20:45;8.50;;;7.60;;
15716;SDS011;7960;50.908;4.204;2022-11-13T10:23:16;7.97;;;7.17;;
15716;SDS011;7960;50.908;4.204;2022-11-13T10:25:45;8.17;;;7.30;;
15716;SDS011;7960;50.908;4.204;2022-11-13T10:28:16;10.63;;;8.53;;
15716;SDS011;7960;50.908;4.204;2022-11-13T10:30:47;9.67;;;8.00;;
15716;SDS011;7960;50.908;4.204;2022-11-13T10:33:17;10.83;;;7.53;;
15716;SDS011;7960;50.908;4.204;2022-11-13T10:35:47;9.37;;;7.80;;
15716;SDS011;7960;50.908;4.204;2022-11-13T10:38:22;13.80;;;9.10;;
15716;SDS011;7960;50.908;4.204;2022-11-13T10:40:51;13.57;;;8.60;;
15716;SDS011;7960;50.908;4.204;2022-11-13T10:43:29;9.57;;;8.17;;
15716;SDS011;7960;50.908;4.204;2022-11-13T10:45:56;10.17;;;7.60;;
15716;SDS011;7960;50.908;4.204;2022-11-13T10:48:26;8.63;;;7.73;;
15716;SDS011;7960;50.908;4.204;2022-11-13T10:50:55;8.80;;;7.50;;
15716;SDS011;7960;50.908;4.204;2022-11-13T10:53:24;8.53;;;7.13;;
15716;SDS011;7960;50.908;4.204;2022-11-13T10:55:53;9.10;;;8.00;;
15716;SDS011;7960;50.908;4.204;2022-11-13T10:58:22;9.70;;;7.27;;
15716;SDS011;7960;50.908;4.204;2022-11-13T11:00:49;9.20;;;6.97;;
15716;SDS011;7960;50.908;4.204;2022-11-13T11:03:17;11.37;;;7.10;;
15716;SDS011;7960;50.908;4.204;2022-11-13T11:05:54;10.10;;;8.37;;
15716;SDS011;7960;50.908;4.204;2022-11-13T11:08:25;14.50;;;9.50;;
15716;SDS011;7960;50.908;4.204;2022-11-13T11:10:59;11.20;;;9.20;;
15716;SDS011;7960;50.908;4.204;2022-11-13T11:13:44;15.40;;;11.07;;
15716;SDS011;7960;50.908;4.204;2022-11-13T11:16:13;16.27;;;12.53;;
15716;SDS011;7960;50.908;4.204;2022-11-13T11:18:46;15.20;;;12.83;;
15716;SDS011;7960;50.908;4.204;2022-11-13T11:21:20;16.27;;;14.07;;
15716;SDS011;7960;50.908;4.204;2022-11-13T11:23:49;15.13;;;13.53;;
15716;SDS011;7960;50.908;4.204;2022-11-13T11:26:22;16.20;;;14.17;;
15716;SDS011;7960;50.908;4.204;2022-11-13T11:28:52;15.30;;;13.57;;
15716;SDS011;7960;50.908;4.204;2022-11-13T11:31:30;14.67;;;13.10;;
15716;SDS011;7960;50.908;4.204;2022-11-13T11:34:03;16.87;;;13.13;;
15716;SDS011;7960;50.908;4.204;2022-11-13T11:36:42;15.83;;;12.80;;
15716;SDS011;7960;50.908;4.204;2022-11-13T11:39:21;14.57;;;12.07;;
15716;SDS011;7960;50.908;4.204;2022-11-13T11:41:59;15.67;;;12.20;;
15716;SDS011;7960;50.908;4.204;2022-11-13T11:44:41;18.03;;;12.50;;
15716;SDS011;7960;50.908;4.204;2022-11-13T11:47:17;16.70;;;11.93;;
15716;SDS011;7960;50.908;4.204;2022-11-13T11:49:44;11.97;;;10.30;;
15716;SDS011;7960;50.908;4.204;2022-11-13T11:52:17;12.80;;;11.50;;
15716;SDS011;7960;50.908;4.204;2022-11-13T11:54:54;12.77;;;10.87;;
15716;SDS011;7960;50.908;4.204;2022-11-13T11:57:34;13.63;;;10.70;;
15716;SDS011;7960;50.908;4.204;2022-11-13T12:00:09;13.47;;;10.00;;
15716;SDS011;7960;50.908;4.204;2022-11-13T12:05:48;10.07;;;9.07;;
15716;SDS011;7960;50.908;4.204;2022-11-13T12:08:25;10.07;;;8.93;;
15716;SDS011;7960;50.908;4.204;2022-11-13T12:11:02;8.10;;;7.30;;
15716;SDS011;7960;50.908;4.204;2022-11-13T12:13:38;10.47;;;7.20;;
15716;SDS011;7960;50.908;4.204;2022-11-13T12:16:14;7.90;;;7.03;;
15716;SDS011;7960;50.908;4.204;2022-11-13T12:18:49;8.97;;;7.80;;
15716;SDS011;7960;50.908;4.204;2022-11-13T12:21:23;8.57;;;7.53;;
15716;SDS011;7960;50.908;4.204;2022-11-13T12:24:00;8.30;;;7.50;;
15716;SDS011;7960;50.908;4.204;2022-11-13T12:26:36;10.37;;;7.40;;
15716;SDS011;7960;50.908;4.204;2022-11-13T12:29:12;9.30;;;7.90;;
15716;SDS011;7960;50.908;4.204;2022-11-13T12:31:54;8.67;;;7.77;;
15716;SDS011;7960;50.908;4.204;2022-11-13T12:34:30;8.20;;;7.30;;
15716;SDS011;7960;50.908;4.204;2022-11-13T12:37:03;8.80;;;6.93;;
15716;SDS011;7960;50.908;4.204;2022-11-13T12:39:38;7.40;;;6.17;;
15716;SDS011;7960;50.908;4.204;2022-11-13T12:42:13;10.10;;;6.80;;
15716;SDS011;7960;50.908;4.204;2022-11-13T12:44:48;8.27;;;7.03;;
15716;SDS011;7960;50.908;4.204;2022-11-13T12:47:22;7.17;;;6.33;;
15716;SDS011;7960;50.908;4.204;2022-11-13T12:49:57;7.03;;;6.10;;
15716;SDS011;7960;50.908;4.204;2022-11-13T12:52:25;7.53;;;6.50;;
15716;SDS011;7960;50.908;4.204;2022-11-13T12:55:03;8.03;;;6.50;;
15716;SDS011;7960;50.908;4.204;2022-11-13T12:57:31;10.10;;;6.07;;
15716;SDS011;7960;50.908;4.204;2022-11-13T13:00:09;6.20;;;5.60;;
15716;SDS011;7960;50.908;4.204;2022-11-13T13:02:49;8.37;;;5.60;;
15716;SDS011;7960;50.908;4.204;2022-11-13T13:05:27;5.57;;;5.07;;
15716;SDS011;7960;50.908;4.204;2022-11-13T13:11:14;7.17;;;4.83;;
15716;SDS011;7960;50.908;4.204;2022-11-13T13:13:46;6.93;;;5.57;;
15716;SDS011;7960;50.908;4.204;2022-11-13T13:16:19;10.23;;;5.77;;
15716;SDS011;7960;50.908;4.204;2022-11-13T13:18:49;6.50;;;5.80;;
15716;SDS011;7960;50.908;4.204;2022-11-13T13:21:17;6.57;;;5.43;;
15716;SDS011;7960;50.908;4.204;2022-11-13T13:23:46;6.90;;;6.20;;
15716;SDS011;7960;50.908;4.204;2022-11-13T13:26:16;11.73;;;6.03;;
15716;SDS011;7960;50.908;4.204;2022-11-13T13:28:46;7.77;;;5.80;;
15716;SDS011;7960;50.908;4.204;2022-11-13T13:31:21;6.03;;;4.97;;
15716;SDS011;7960;50.908;4.204;2022-11-13T13:34:12;5.37;;;4.27;;
15716;SDS011;7960;50.908;4.204;2022-11-13T13:36:50;6.30;;;4.43;;
15716;SDS011;7960;50.908;4.204;2022-11-13T13:39:26;7.83;;;4.30;;
15716;SDS011;7960;50.908;4.204;2022-11-13T13:42:09;7.27;;;4.17;;
15716;SDS011;7960;50.908;4.204;2022-11-13T13:45:03;4.47;;;4.07;;
15716;SDS011;7960;50.908;4.204;2022-11-13T13:47:41;9.30;;;6.43;;
15716;SDS011;7960;50.908;4.204;2022-11-13T13:50:12;6.13;;;4.40;;
15716;SDS011;7960;50.908;4.204;2022-11-13T13:52:41;7.30;;;4.20;;
15716;SDS011;7960;50.908;4.204;2022-11-13T13:55:14;6.07;;;3.90;;
15716;SDS011;7960;50.908;4.204;2022-11-13T13:57:44;5.00;;;4.43;;
15716;SDS011;7960;50.908;4.204;2022-11-13T14:00:12;5.40;;;3.87;;
15716;SDS011;7960;50.908;4.204;2022-11-13T14:02:45;4.77;;;3.80;;
15716;SDS011;7960;50.908;4.204;2022-11-13T14:05:16;6.73;;;4.83;;
15716;SDS011;7960;50.908;4.204;2022-11-13T14:07:50;10.43;;;6.50;;
15716;SDS011;7960;50.908;4.204;2022-11-13T14:10:19;9.07;;;4.80;;
15716;SDS011;7960;50.908;4.204;2022-11-13T14:12:48;6.63;;;5.23;;
15716;SDS011;7960;50.908;4.204;2022-11-13T14:15:23;6.80;;;4.33;;
15716;SDS011;7960;50.908;4.204;2022-11-13T14:18:03;5.07;;;3.80;;
15716;SDS011;7960;50.908;4.204;2022-11-13T14:20:39;5.43;;;3.70;;
15716;SDS011;7960;50.908;4.204;2022-11-13T14:23:08;8.50;;;4.40;;
15716;SDS011;7960;50.908;4.204;2022-11-13T14:25:37;7.07;;;4.10;;
15716;SDS011;7960;50.908;4.204;2022-11-13T14:28:11;6.17;;;4.50;;
15716;SDS011;7960;50.908;4.204;2022-11-13T14:30:40;9.53;;;5.03;;
15716;SDS011;7960;50.908;4.204;2022-11-13T14:33:07;8.73;;;5.30;;
15716;SDS011;7960;50.908;4.204;2022-11-13T14:35:35;7.27;;;5.03;;
15716;SDS011;7960;50.908;4.204;2022-11-13T14:38:09;5.20;;;3.90;;
15716;SDS011;7960;50.908;4.204;2022-11-13T14:40:45;6.50;;;4.43;;
15716;SDS011;7960;50.908;4.204;2022-11-13T14:43:16;7.10;;;4.93;;
15716;SDS011;7960;50.908;4.204;2022-11-13T14:45:51;5.23;;;4.20;;
15716;SDS011;7960;50.908;4.204;2022-11-13T14:48:20;6.47;;;4.67;;
15716;SDS011;7960;50.908;4.204;2022-11-13T14:50:49;6.47;;;4.70;;
15716;SDS011;7960;50.908;4.204;2022-11-13T14:53:24;4.87;;;4.27;;
15716;SDS011;7960;50.908;4.204;2022-11-13T14:55:54;5.97;;;4.60;;
15716;SDS011;7960;50.908;4.204;2022-11-13T14:58:27;11.63;;;5.17;;
15716;SDS011;7960;50.908;4.204;2022-11-13T15:00:56;6.60;;;4.70;;
15716;SDS011;7960;50.908;4.204;2022-11-13T15:03:23;5.57;;;4.73;;
15716;SDS011;7960;50.908;4.204;2022-11-13T15:05:51;10.23;;;4.90;;